sensor_id;sensor_type;location;lat;lon;timestamp;P1;durP1;ratioP1;P2;durP2;ratioP2
12950;SDS011;6540;50.858;7.232;2023-01-31T00:02:18;11.23;;;2.70;;
12950;SDS011;6540;50.858;7.232;2023-01-31T00:04:43;6.20;;;2.57;;
12950;SDS011;6540;50.858;7.232;2023-01-31T00:07:09;8.30;;;2.70;;
12950;SDS011;6540;50.858;7.232;2023-01-31T00:09:34;12.30;;;2.83;;
12950;SDS011;6540;50.858;7.232;2023-01-31T00:12:00;7.67;;;3.37;;
12950;SDS011;6540;50.858;7.232;2023-01-31T00:14:25;10.60;;;3.37;;
12950;SDS011;6540;50.858;7.232;2023-01-31T00:16:50;14.03;;;3.93;;
12950;SDS011;6540;50.858;7.232;2023-01-31T00:19:16;16.83;;;3.70;;
12950;SDS011;6540;50.858;7.232;2023-01-31T00:21:41;14.47;;;3.07;;
12950;SDS011;6540;50.858;7.232;2023-01-31T00:24:10;8.70;;;2.73;;
12950;SDS011;6540;50.858;7.232;2023-01-31T00:26:37;17.40;;;4.03;;
12950;SDS011;6540;50.858;7.232;2023-01-31T00:29:03;12.57;;;3.00;;
12950;SDS011;6540;50.858;7.232;2023-01-31T00:31:30;7.70;;;2.40;;
12950;SDS011;6540;50.858;7.232;2023-01-31T00:33:57;7.70;;;3.00;;
12950;SDS011;6540;50.858;7.232;2023-01-31T00:36:24;14.20;;;3.60;;
12950;SDS011;6540;50.858;7.232;2023-01-31T00:38:52;12.13;;;3.53;;
12950;SDS011;6540;50.858;7.232;2023-01-31T00:41:20;14.80;;;3.07;;
12950;SDS011;6540;50.858;7.232;2023-01-31T00:43:46;10.80;;;2.57;;
12950;SDS011;6540;50.858;7.232;2023-01-31T00:46:12;9.57;;;3.23;;
12950;SDS011;6540;50.858;7.232;2023-01-31T00:48:37;10.13;;;2.47;;
12950;SDS011;6540;50.858;7.232;2023-01-31T00:51:03;17.40;;;3.87;;
12950;SDS011;6540;50.858;7.232;2023-01-31T00:53:29;10.10;;;3.50;;
12950;SDS011;6540;50.858;7.232;2023-01-31T00:56:00;15.27;;;2.93;;
12950;SDS011;6540;50.858;7.232;2023-01-31T00:58:27;9.30;;;3.30;;
12950;SDS011;6540;50.858;7.232;2023-01-31T01:00:52;6.77;;;3.30;;
12950;SDS011;6540;50.858;7.232;2023-01-31T01:03:18;6.40;;;4.13;;
12950;SDS011;6540;50.858;7.232;2023-01-31T01:05:43;15.50;;;4.00;;
12950;SDS011;6540;50.858;7.232;2023-01-31T01:08:08;13.37;;;4.40;;
12950;SDS011;6540;50.858;7.232;2023-01-31T01:10:34;10.37;;;4.53;;
12950;SDS011;6540;50.858;7.232;2023-01-31T01:13:00;13.17;;;3.63;;
12950;SDS011;6540;50.858;7.232;2023-01-31T01:15:26;8.60;;;3.97;;
12950;SDS011;6540;50.858;7.232;2023-01-31T01:17:51;12.70;;;4.33;;
12950;SDS011;6540;50.858;7.232;2023-01-31T01:20:17;13.70;;;3.50;;
12950;SDS011;6540;50.858;7.232;2023-01-31T01:22:42;11.70;;;3.37;;
12950;SDS011;6540;50.858;7.232;2023-01-31T01:25:08;12.43;;;4.13;;
12950;SDS011;6540;50.858;7.232;2023-01-31T01:27:34;9.80;;;3.10;;
12950;SDS011;6540;50.858;7.232;2023-01-31T01:29:59;11.97;;;3.67;;
12950;SDS011;6540;50.858;7.232;2023-01-31T01:32:26;9.23;;;2.60;;
12950;SDS011;6540;50.858;7.232;2023-01-31T01:34:52;16.00;;;3.07;;
12950;SDS011;6540;50.858;7.232;2023-01-31T01:37:17;11.17;;;3.17;;
12950;SDS011;6540;50.858;7.232;2023-01-31T01:39:46;8.83;;;3.67;;
12950;SDS011;6540;50.858;7.232;2023-01-31T01:42:15;6.23;;;3.33;;
12950;SDS011;6540;50.858;7.232;2023-01-31T01:47:12;7.50;;;3.47;;
12950;SDS011;6540;50.858;7.232;2023-01-31T01:49:39;11.33;;;3.20;;
12950;SDS011;6540;50.858;7.232;2023-01-31T01:52:05;16.33;;;3.37;;
12950;SDS011;6540;50.858;7.232;2023-01-31T01:54:40;16.57;;;3.13;;
12950;SDS011;6540;50.858;7.232;2023-01-31T01:57:10;10.60;;;2.93;;
12950;SDS011;6540;50.858;7.232;2023-01-31T01:59:39;8.37;;;2.70;;
12950;SDS011;6540;50.858;7.232;2023-01-31T02:02:09;17.43;;;3.97;;
12950;SDS011;6540;50.858;7.232;2023-01-31T02:04:36;8.33;;;3.07;;
12950;SDS011;6540;50.858;7.232;2023-01-31T02:07:03;12.30;;;3.23;;
12950;SDS011;6540;50.858;7.232;2023-01-31T02:09:33;10.43;;;2.20;;
12950;SDS011;6540;50.858;7.232;2023-01-31T02:12:08;8.37;;;2.90;;
12950;SDS011;6540;50.858;7.232;2023-01-31T02:14:35;14.20;;;3.00;;
12950;SDS011;6540;50.858;7.232;2023-01-31T02:17:01;10.93;;;2.70;;
12950;SDS011;6540;50.858;7.232;2023-01-31T02:22:07;4.40;;;2.00;;
12950;SDS011;6540;50.858;7.232;2023-01-31T02:24:51;12.20;;;3.00;;
12950;SDS011;6540;50.858;7.232;2023-01-31T02:33:19;13.47;;;3.63;;
12950;SDS011;6540;50.858;7.232;2023-01-31T02:36:03;10.87;;;3.27;;
12950;SDS011;6540;50.858;7.232;2023-01-31T02:38:52;9.10;;;2.73;;
12950;SDS011;6540;50.858;7.232;2023-01-31T02:44:42;6.77;;;2.30;;
12950;SDS011;6540;50.858;7.232;2023-01-31T02:55:31;11.40;;;2.93;;
12950;SDS011;6540;50.858;7.232;2023-01-31T02:58:16;11.33;;;2.67;;
12950;SDS011;6540;50.858;7.232;2023-01-31T03:00:44;7.07;;;2.87;;
12950;SDS011;6540;50.858;7.232;2023-01-31T03:03:12;10.87;;;2.03;;
12950;SDS011;6540;50.858;7.232;2023-01-31T03:06:07;9.33;;;2.67;;
12950;SDS011;6540;50.858;7.232;2023-01-31T03:11:49;9.50;;;3.30;;
12950;SDS011;6540;50.858;7.232;2023-01-31T03:18:11;7.87;;;2.77;;
12950;SDS011;6540;50.858;7.232;2023-01-31T03:23:38;8.53;;;2.70;;
12950;SDS011;6540;50.858;7.232;2023-01-31T03:26:08;9.43;;;3.17;;
12950;SDS011;6540;50.858;7.232;2023-01-31T03:28:35;7.97;;;1.80;;
12950;SDS011;6540;50.858;7.232;2023-01-31T03:34:07;4.27;;;2.20;;
12950;SDS011;6540;50.858;7.232;2023-01-31T03:45:35;3.70;;;2.07;;
12950;SDS011;6540;50.858;7.232;2023-01-31T03:48:06;2.83;;;1.87;;
12950;SDS011;6540;50.858;7.232;2023-01-31T03:50:42;7.73;;;3.23;;
12950;SDS011;6540;50.858;7.232;2023-01-31T03:55:56;9.17;;;2.30;;
12950;SDS011;6540;50.858;7.232;2023-01-31T03:58:28;2.83;;;1.80;;
12950;SDS011;6540;50.858;7.232;2023-01-31T04:00:59;6.03;;;2.00;;
12950;SDS011;6540;50.858;7.232;2023-01-31T04:03:31;6.90;;;2.43;;
12950;SDS011;6540;50.858;7.232;2023-01-31T04:06:03;9.27;;;3.03;;
12950;SDS011;6540;50.858;7.232;2023-01-31T04:08:30;7.30;;;2.60;;
12950;SDS011;6540;50.858;7.232;2023-01-31T04:10:57;7.67;;;2.40;;
12950;SDS011;6540;50.858;7.232;2023-01-31T04:13:23;4.93;;;2.57;;
12950;SDS011;6540;50.858;7.232;2023-01-31T04:15:48;10.20;;;2.93;;
12950;SDS011;6540;50.858;7.232;2023-01-31T04:18:14;7.07;;;3.00;;
12950;SDS011;6540;50.858;7.232;2023-01-31T04:20:39;11.23;;;2.60;;
12950;SDS011;6540;50.858;7.232;2023-01-31T04:23:04;9.50;;;3.13;;
12950;SDS011;6540;50.858;7.232;2023-01-31T04:25:30;5.70;;;2.47;;
12950;SDS011;6540;50.858;7.232;2023-01-31T04:27:55;7.67;;;2.77;;
12950;SDS011;6540;50.858;7.232;2023-01-31T04:30:20;4.10;;;2.90;;
12950;SDS011;6540;50.858;7.232;2023-01-31T04:32:46;6.60;;;2.27;;
12950;SDS011;6540;50.858;7.232;2023-01-31T04:35:11;8.73;;;3.03;;
12950;SDS011;6540;50.858;7.232;2023-01-31T04:37:37;9.80;;;2.80;;
12950;SDS011;6540;50.858;7.232;2023-01-31T04:40:02;7.97;;;2.77;;
12950;SDS011;6540;50.858;7.232;2023-01-31T04:42:28;11.37;;;3.13;;
12950;SDS011;6540;50.858;7.232;2023-01-31T04:44:53;4.20;;;2.17;;
12950;SDS011;6540;50.858;7.232;2023-01-31T04:47:18;7.20;;;2.97;;
12950;SDS011;6540;50.858;7.232;2023-01-31T04:49:44;8.77;;;2.27;;
12950;SDS011;6540;50.858;7.232;2023-01-31T04:52:09;8.03;;;2.30;;
12950;SDS011;6540;50.858;7.232;2023-01-31T04:54:35;16.23;;;2.30;;
12950;SDS011;6540;50.858;7.232;2023-01-31T04:57:01;8.67;;;2.43;;
12950;SDS011;6540;50.858;7.232;2023-01-31T04:59:26;3.10;;;1.87;;
12950;SDS011;6540;50.858;7.232;2023-01-31T05:01:52;5.03;;;1.90;;
12950;SDS011;6540;50.858;7.232;2023-01-31T05:04:17;4.00;;;2.33;;
12950;SDS011;6540;50.858;7.232;2023-01-31T05:06:42;7.83;;;1.93;;
12950;SDS011;6540;50.858;7.232;2023-01-31T05:09:08;5.03;;;2.30;;
12950;SDS011;6540;50.858;7.232;2023-01-31T05:11:33;4.03;;;2.20;;
12950;SDS011;6540;50.858;7.232;2023-01-31T05:13:59;3.10;;;1.97;;
12950;SDS011;6540;50.858;7.232;2023-01-31T05:16:24;6.73;;;2.20;;
12950;SDS011;6540;50.858;7.232;2023-01-31T05:18:49;3.13;;;1.80;;
12950;SDS011;6540;50.858;7.232;2023-01-31T05:21:15;5.83;;;1.77;;
12950;SDS011;6540;50.858;7.232;2023-01-31T05:23:40;7.53;;;1.97;;
12950;SDS011;6540;50.858;7.232;2023-01-31T05:26:05;2.60;;;1.70;;
12950;SDS011;6540;50.858;7.232;2023-01-31T05:28:31;3.37;;;2.20;;
12950;SDS011;6540;50.858;7.232;2023-01-31T05:31:06;5.53;;;1.90;;
12950;SDS011;6540;50.858;7.232;2023-01-31T05:33:32;3.77;;;2.00;;
12950;SDS011;6540;50.858;7.232;2023-01-31T05:35:58;6.47;;;2.27;;
12950;SDS011;6540;50.858;7.232;2023-01-31T05:38:24;5.23;;;1.60;;
12950;SDS011;6540;50.858;7.232;2023-01-31T05:40:50;7.10;;;1.73;;
12950;SDS011;6540;50.858;7.232;2023-01-31T05:43:16;2.03;;;1.83;;
12950;SDS011;6540;50.858;7.232;2023-01-31T05:45:42;4.43;;;1.87;;
12950;SDS011;6540;50.858;7.232;2023-01-31T05:48:07;5.60;;;2.80;;
12950;SDS011;6540;50.858;7.232;2023-01-31T05:50:33;2.97;;;2.03;;
12950;SDS011;6540;50.858;7.232;2023-01-31T05:52:59;4.73;;;2.23;;
12950;SDS011;6540;50.858;7.232;2023-01-31T05:55:25;3.23;;;1.83;;
12950;SDS011;6540;50.858;7.232;2023-01-31T05:57:52;5.00;;;2.30;;
12950;SDS011;6540;50.858;7.232;2023-01-31T06:00:17;4.00;;;2.30;;
12950;SDS011;6540;50.858;7.232;2023-01-31T06:02:43;4.23;;;2.30;;
12950;SDS011;6540;50.858;7.232;2023-01-31T06:05:09;2.30;;;2.07;;
12950;SDS011;6540;50.858;7.232;2023-01-31T06:07:35;5.97;;;2.37;;
12950;SDS011;6540;50.858;7.232;2023-01-31T06:10:02;4.00;;;2.33;;
12950;SDS011;6540;50.858;7.232;2023-01-31T06:12:29;4.87;;;2.00;;
12950;SDS011;6540;50.858;7.232;2023-01-31T06:14:55;4.90;;;2.87;;
12950;SDS011;6540;50.858;7.232;2023-01-31T06:17:20;5.67;;;1.87;;
12950;SDS011;6540;50.858;7.232;2023-01-31T06:19:48;3.13;;;2.33;;
12950;SDS011;6540;50.858;7.232;2023-01-31T06:22:13;6.07;;;2.67;;
12950;SDS011;6540;50.858;7.232;2023-01-31T06:24:39;5.57;;;2.70;;
12950;SDS011;6540;50.858;7.232;2023-01-31T06:27:04;6.60;;;2.50;;
12950;SDS011;6540;50.858;7.232;2023-01-31T06:29:29;5.87;;;3.40;;
12950;SDS011;6540;50.858;7.232;2023-01-31T06:31:55;7.03;;;3.70;;
12950;SDS011;6540;50.858;7.232;2023-01-31T06:34:20;14.60;;;3.60;;
12950;SDS011;6540;50.858;7.232;2023-01-31T06:36:45;6.80;;;3.40;;
12950;SDS011;6540;50.858;7.232;2023-01-31T06:39:11;9.37;;;3.70;;
12950;SDS011;6540;50.858;7.232;2023-01-31T06:41:38;14.60;;;3.97;;
12950;SDS011;6540;50.858;7.232;2023-01-31T06:44:03;7.70;;;3.30;;
12950;SDS011;6540;50.858;7.232;2023-01-31T06:46:29;7.93;;;4.00;;
12950;SDS011;6540;50.858;7.232;2023-01-31T06:48:54;10.57;;;4.10;;
12950;SDS011;6540;50.858;7.232;2023-01-31T06:51:19;11.63;;;5.00;;
12950;SDS011;6540;50.858;7.232;2023-01-31T06:53:45;7.67;;;2.97;;
12950;SDS011;6540;50.858;7.232;2023-01-31T06:56:10;9.90;;;5.20;;
12950;SDS011;6540;50.858;7.232;2023-01-31T06:58:35;12.43;;;5.53;;
12950;SDS011;6540;50.858;7.232;2023-01-31T07:01:19;17.07;;;6.10;;
12950;SDS011;6540;50.858;7.232;2023-01-31T07:03:46;18.37;;;7.10;;
12950;SDS011;6540;50.858;7.232;2023-01-31T07:06:12;14.30;;;6.10;;
12950;SDS011;6540;50.858;7.232;2023-01-31T07:08:38;16.17;;;6.83;;
12950;SDS011;6540;50.858;7.232;2023-01-31T07:11:03;16.00;;;5.70;;
12950;SDS011;6540;50.858;7.232;2023-01-31T07:13:29;12.10;;;4.00;;
12950;SDS011;6540;50.858;7.232;2023-01-31T07:15:55;9.63;;;4.17;;
12950;SDS011;6540;50.858;7.232;2023-01-31T07:18:21;16.30;;;5.07;;
12950;SDS011;6540;50.858;7.232;2023-01-31T07:20:46;11.93;;;4.17;;
12950;SDS011;6540;50.858;7.232;2023-01-31T07:23:12;12.53;;;4.23;;
12950;SDS011;6540;50.858;7.232;2023-01-31T07:25:37;14.33;;;4.63;;
12950;SDS011;6540;50.858;7.232;2023-01-31T07:28:03;13.17;;;4.67;;
12950;SDS011;6540;50.858;7.232;2023-01-31T07:30:28;7.47;;;4.60;;
12950;SDS011;6540;50.858;7.232;2023-01-31T07:32:54;14.97;;;4.87;;
12950;SDS011;6540;50.858;7.232;2023-01-31T07:35:19;9.73;;;4.53;;
12950;SDS011;6540;50.858;7.232;2023-01-31T07:37:45;8.27;;;4.33;;
12950;SDS011;6540;50.858;7.232;2023-01-31T07:40:11;13.20;;;4.50;;
12950;SDS011;6540;50.858;7.232;2023-01-31T07:42:38;8.93;;;4.33;;
12950;SDS011;6540;50.858;7.232;2023-01-31T07:45:04;4.63;;;3.73;;
12950;SDS011;6540;50.858;7.232;2023-01-31T07:47:30;16.10;;;5.87;;
12950;SDS011;6540;50.858;7.232;2023-01-31T07:49:56;15.37;;;5.30;;
12950;SDS011;6540;50.858;7.232;2023-01-31T07:52:21;23.13;;;5.43;;
12950;SDS011;6540;50.858;7.232;2023-01-31T07:54:46;9.33;;;4.80;;
12950;SDS011;6540;50.858;7.232;2023-01-31T07:57:12;8.37;;;4.97;;
12950;SDS011;6540;50.858;7.232;2023-01-31T07:59:37;21.00;;;5.70;;
12950;SDS011;6540;50.858;7.232;2023-01-31T08:02:03;16.27;;;4.90;;
12950;SDS011;6540;50.858;7.232;2023-01-31T08:04:46;5.57;;;4.33;;
12950;SDS011;6540;50.858;7.232;2023-01-31T08:07:12;10.37;;;5.23;;
12950;SDS011;6540;50.858;7.232;2023-01-31T08:09:37;9.77;;;4.30;;
12950;SDS011;6540;50.858;7.232;2023-01-31T08:12:03;18.47;;;5.17;;
12950;SDS011;6540;50.858;7.232;2023-01-31T08:14:29;20.57;;;5.67;;
12950;SDS011;6540;50.858;7.232;2023-01-31T08:16:55;13.80;;;4.50;;
12950;SDS011;6540;50.858;7.232;2023-01-31T08:19:20;8.83;;;4.67;;
12950;SDS011;6540;50.858;7.232;2023-01-31T08:21:46;23.03;;;5.73;;
12950;SDS011;6540;50.858;7.232;2023-01-31T08:24:12;13.17;;;5.57;;
12950;SDS011;6540;50.858;7.232;2023-01-31T08:26:38;16.07;;;5.03;;
12950;SDS011;6540;50.858;7.232;2023-01-31T08:29:03;11.57;;;4.20;;
12950;SDS011;6540;50.858;7.232;2023-01-31T08:31:29;15.07;;;5.27;;
12950;SDS011;6540;50.858;7.232;2023-01-31T08:33:54;18.60;;;5.17;;
12950;SDS011;6540;50.858;7.232;2023-01-31T08:36:23;14.50;;;5.17;;
12950;SDS011;6540;50.858;7.232;2023-01-31T08:38:51;8.27;;;4.07;;
12950;SDS011;6540;50.858;7.232;2023-01-31T08:41:17;5.83;;;4.40;;
12950;SDS011;6540;50.858;7.232;2023-01-31T08:43:44;15.27;;;4.63;;
12950;SDS011;6540;50.858;7.232;2023-01-31T08:46:10;11.60;;;5.37;;
12950;SDS011;6540;50.858;7.232;2023-01-31T08:48:37;13.10;;;5.10;;
12950;SDS011;6540;50.858;7.232;2023-01-31T08:51:07;21.07;;;4.33;;
12950;SDS011;6540;50.858;7.232;2023-01-31T08:53:38;8.60;;;4.53;;
12950;SDS011;6540;50.858;7.232;2023-01-31T08:56:05;12.00;;;4.57;;
12950;SDS011;6540;50.858;7.232;2023-01-31T08:58:31;11.07;;;4.03;;
12950;SDS011;6540;50.858;7.232;2023-01-31T09:01:05;12.53;;;3.83;;
12950;SDS011;6540;50.858;7.232;2023-01-31T09:03:40;9.13;;;4.40;;
12950;SDS011;6540;50.858;7.232;2023-01-31T09:06:07;12.50;;;4.53;;
12950;SDS011;6540;50.858;7.232;2023-01-31T09:08:36;13.70;;;4.30;;
12950;SDS011;6540;50.858;7.232;2023-01-31T09:11:01;14.70;;;4.77;;
12950;SDS011;6540;50.858;7.232;2023-01-31T09:13:27;8.47;;;3.97;;
12950;SDS011;6540;50.858;7.232;2023-01-31T09:16:01;9.63;;;4.03;;
12950;SDS011;6540;50.858;7.232;2023-01-31T09:18:31;10.77;;;3.63;;
12950;SDS011;6540;50.858;7.232;2023-01-31T09:21:04;8.60;;;4.27;;
12950;SDS011;6540;50.858;7.232;2023-01-31T09:23:32;6.53;;;3.10;;
12950;SDS011;6540;50.858;7.232;2023-01-31T09:25:57;9.07;;;3.43;;
12950;SDS011;6540;50.858;7.232;2023-01-31T09:28:23;5.17;;;3.17;;
12950;SDS011;6540;50.858;7.232;2023-01-31T09:30:49;8.03;;;3.90;;
12950;SDS011;6540;50.858;7.232;2023-01-31T09:33:17;6.33;;;3.27;;
12950;SDS011;6540;50.858;7.232;2023-01-31T09:35:42;12.10;;;3.67;;
12950;SDS011;6540;50.858;7.232;2023-01-31T09:38:07;9.50;;;3.63;;
12950;SDS011;6540;50.858;7.232;2023-01-31T09:40:34;10.27;;;3.47;;
12950;SDS011;6540;50.858;7.232;2023-01-31T09:43:01;12.57;;;4.20;;
12950;SDS011;6540;50.858;7.232;2023-01-31T09:45:30;19.53;;;4.57;;
12950;SDS011;6540;50.858;7.232;2023-01-31T09:47:57;13.90;;;3.53;;
12950;SDS011;6540;50.858;7.232;2023-01-31T09:53:11;10.53;;;3.20;;
12950;SDS011;6540;50.858;7.232;2023-01-31T09:55:44;6.17;;;3.07;;
12950;SDS011;6540;50.858;7.232;2023-01-31T10:09:52;16.30;;;3.20;;
12950;SDS011;6540;50.858;7.232;2023-01-31T10:18:09;11.57;;;3.47;;
12950;SDS011;6540;50.858;7.232;2023-01-31T10:20:45;5.53;;;3.10;;
12950;SDS011;6540;50.858;7.232;2023-01-31T10:23:17;10.10;;;3.43;;
12950;SDS011;6540;50.858;7.232;2023-01-31T10:25:47;12.70;;;3.47;;
12950;SDS011;6540;50.858;7.232;2023-01-31T10:36:27;16.80;;;3.47;;
12950;SDS011;6540;50.858;7.232;2023-01-31T10:44:39;5.47;;;2.73;;
12950;SDS011;6540;50.858;7.232;2023-01-31T10:47:13;14.73;;;3.43;;
12950;SDS011;6540;50.858;7.232;2023-01-31T10:49:41;9.33;;;2.77;;
12950;SDS011;6540;50.858;7.232;2023-01-31T10:57:58;8.13;;;3.53;;
12950;SDS011;6540;50.858;7.232;2023-01-31T11:00:27;10.43;;;3.87;;
12950;SDS011;6540;50.858;7.232;2023-01-31T11:02:55;9.77;;;3.10;;
12950;SDS011;6540;50.858;7.232;2023-01-31T11:05:22;8.43;;;3.20;;
12950;SDS011;6540;50.858;7.232;2023-01-31T11:07:49;8.03;;;2.57;;
12950;SDS011;6540;50.858;7.232;2023-01-31T11:10:23;10.73;;;3.00;;
12950;SDS011;6540;50.858;7.232;2023-01-31T11:12:52;8.30;;;2.97;;
12950;SDS011;6540;50.858;7.232;2023-01-31T11:15:18;10.93;;;2.97;;
12950;SDS011;6540;50.858;7.232;2023-01-31T11:17:45;6.07;;;3.23;;
12950;SDS011;6540;50.858;7.232;2023-01-31T11:22:50;7.10;;;2.90;;
12950;SDS011;6540;50.858;7.232;2023-01-31T11:25:18;6.83;;;3.03;;
12950;SDS011;6540;50.858;7.232;2023-01-31T11:27:45;8.27;;;3.33;;
12950;SDS011;6540;50.858;7.232;2023-01-31T11:30:19;10.40;;;3.17;;
12950;SDS011;6540;50.858;7.232;2023-01-31T11:32:51;10.40;;;3.30;;
12950;SDS011;6540;50.858;7.232;2023-01-31T11:37:52;11.97;;;3.43;;
12950;SDS011;6540;50.858;7.232;2023-01-31T11:40:37;4.97;;;2.87;;
12950;SDS011;6540;50.858;7.232;2023-01-31T11:43:04;12.70;;;3.33;;
12950;SDS011;6540;50.858;7.232;2023-01-31T11:45:55;11.37;;;3.10;;
12950;SDS011;6540;50.858;7.232;2023-01-31T11:48:38;14.87;;;3.73;;
12950;SDS011;6540;50.858;7.232;2023-01-31T11:51:05;9.53;;;3.33;;
12950;SDS011;6540;50.858;7.232;2023-01-31T11:53:45;6.93;;;3.00;;
12950;SDS011;6540;50.858;7.232;2023-01-31T11:56:15;11.10;;;3.30;;
12950;SDS011;6540;50.858;7.232;2023-01-31T11:58:44;7.93;;;3.67;;
12950;SDS011;6540;50.858;7.232;2023-01-31T12:03:38;8.73;;;3.10;;
12950;SDS011;6540;50.858;7.232;2023-01-31T12:06:10;13.90;;;3.90;;
12950;SDS011;6540;50.858;7.232;2023-01-31T12:08:54;6.63;;;3.03;;
12950;SDS011;6540;50.858;7.232;2023-01-31T12:13:51;8.60;;;3.20;;
12950;SDS011;6540;50.858;7.232;2023-01-31T12:16:18;5.53;;;2.70;;
12950;SDS011;6540;50.858;7.232;2023-01-31T12:27:28;10.10;;;3.40;;
12950;SDS011;6540;50.858;7.232;2023-01-31T12:30:20;7.67;;;3.10;;
12950;SDS011;6540;50.858;7.232;2023-01-31T12:35:41;9.17;;;2.63;;
12950;SDS011;6540;50.858;7.232;2023-01-31T12:49:40;7.03;;;2.73;;
12950;SDS011;6540;50.858;7.232;2023-01-31T12:57:39;7.70;;;2.80;;
12950;SDS011;6540;50.858;7.232;2023-01-31T13:08:32;6.03;;;2.57;;
12950;SDS011;6540;50.858;7.232;2023-01-31T13:11:05;5.30;;;2.37;;
12950;SDS011;6540;50.858;7.232;2023-01-31T13:16:20;4.70;;;2.20;;
12950;SDS011;6540;50.858;7.232;2023-01-31T13:18:51;5.77;;;3.03;;
12950;SDS011;6540;50.858;7.232;2023-01-31T13:21:22;4.83;;;2.53;;
12950;SDS011;6540;50.858;7.232;2023-01-31T13:23:58;4.03;;;2.40;;
12950;SDS011;6540;50.858;7.232;2023-01-31T13:26:32;3.27;;;2.30;;
12950;SDS011;6540;50.858;7.232;2023-01-31T13:29:06;6.43;;;2.40;;
12950;SDS011;6540;50.858;7.232;2023-01-31T13:32:39;9.43;;;2.47;;
12950;SDS011;6540;50.858;7.232;2023-01-31T13:34:44;4.07;;;2.23;;
12950;SDS011;6540;50.858;7.232;2023-01-31T13:37:14;5.17;;;2.23;;
12950;SDS011;6540;50.858;7.232;2023-01-31T13:39:51;3.83;;;2.07;;
12950;SDS011;6540;50.858;7.232;2023-01-31T13:42:20;6.57;;;1.70;;
12950;SDS011;6540;50.858;7.232;2023-01-31T13:44:45;4.43;;;1.87;;
12950;SDS011;6540;50.858;7.232;2023-01-31T13:49:51;6.87;;;1.90;;
12950;SDS011;6540;50.858;7.232;2023-01-31T13:52:31;6.00;;;2.20;;
12950;SDS011;6540;50.858;7.232;2023-01-31T13:55:00;1.97;;;1.77;;
12950;SDS011;6540;50.858;7.232;2023-01-31T13:57:33;5.37;;;2.17;;
12950;SDS011;6540;50.858;7.232;2023-01-31T14:00:55;5.63;;;3.00;;
12950;SDS011;6540;50.858;7.232;2023-01-31T14:03:03;4.80;;;2.90;;
12950;SDS011;6540;50.858;7.232;2023-01-31T14:10:56;7.10;;;3.80;;
12950;SDS011;6540;50.858;7.232;2023-01-31T14:15:57;4.53;;;3.20;;
12950;SDS011;6540;50.858;7.232;2023-01-31T14:23:55;7.30;;;3.80;;
12950;SDS011;6540;50.858;7.232;2023-01-31T14:29:17;8.90;;;4.13;;
12950;SDS011;6540;50.858;7.232;2023-01-31T14:31:47;5.73;;;4.30;;
12950;SDS011;6540;50.858;7.232;2023-01-31T14:34:19;8.53;;;4.60;;
12950;SDS011;6540;50.858;7.232;2023-01-31T14:37:10;7.83;;;4.57;;
12950;SDS011;6540;50.858;7.232;2023-01-31T14:39:40;8.37;;;4.77;;
12950;SDS011;6540;50.858;7.232;2023-01-31T14:45:19;7.13;;;4.67;;
12950;SDS011;6540;50.858;7.232;2023-01-31T14:58:27;6.63;;;4.50;;
12950;SDS011;6540;50.858;7.232;2023-01-31T15:00:56;6.13;;;4.33;;
12950;SDS011;6540;50.858;7.232;2023-01-31T15:03:29;6.33;;;5.00;;
12950;SDS011;6540;50.858;7.232;2023-01-31T15:06:09;12.43;;;4.07;;
12950;SDS011;6540;50.858;7.232;2023-01-31T15:08:40;9.57;;;4.43;;
12950;SDS011;6540;50.858;7.232;2023-01-31T15:11:11;7.90;;;5.03;;
12950;SDS011;6540;50.858;7.232;2023-01-31T15:13:55;8.77;;;4.40;;
12950;SDS011;6540;50.858;7.232;2023-01-31T15:18:49;8.07;;;3.90;;
12950;SDS011;6540;50.858;7.232;2023-01-31T15:21:18;7.93;;;4.13;;
12950;SDS011;6540;50.858;7.232;2023-01-31T15:23:48;6.07;;;4.13;;
12950;SDS011;6540;50.858;7.232;2023-01-31T15:26:15;5.50;;;4.37;;
12950;SDS011;6540;50.858;7.232;2023-01-31T15:28:42;7.30;;;3.67;;
12950;SDS011;6540;50.858;7.232;2023-01-31T15:31:13;5.80;;;4.20;;
12950;SDS011;6540;50.858;7.232;2023-01-31T15:33:43;5.37;;;4.27;;
12950;SDS011;6540;50.858;7.232;2023-01-31T15:38:54;4.23;;;3.83;;
12950;SDS011;6540;50.858;7.232;2023-01-31T15:44:19;5.13;;;4.20;;
12950;SDS011;6540;50.858;7.232;2023-01-31T15:46:54;3.70;;;3.13;;
12950;SDS011;6540;50.858;7.232;2023-01-31T15:49:29;5.47;;;4.30;;
12950;SDS011;6540;50.858;7.232;2023-01-31T15:52:09;4.27;;;3.37;;
12950;SDS011;6540;50.858;7.232;2023-01-31T15:54:38;3.40;;;3.10;;
12950;SDS011;6540;50.858;7.232;2023-01-31T15:57:04;5.00;;;3.60;;
12950;SDS011;6540;50.858;7.232;2023-01-31T15:59:39;5.23;;;3.43;;
12950;SDS011;6540;50.858;7.232;2023-01-31T16:02:15;3.90;;;3.53;;
12950;SDS011;6540;50.858;7.232;2023-01-31T16:04:52;4.83;;;3.60;;
12950;SDS011;6540;50.858;7.232;2023-01-31T16:07:18;4.60;;;3.80;;
12950;SDS011;6540;50.858;7.232;2023-01-31T16:09:45;6.23;;;3.90;;
12950;SDS011;6540;50.858;7.232;2023-01-31T16:12:11;4.93;;;3.93;;
12950;SDS011;6540;50.858;7.232;2023-01-31T16:14:37;3.93;;;3.53;;
12950;SDS011;6540;50.858;7.232;2023-01-31T16:17:05;5.00;;;3.60;;
12950;SDS011;6540;50.858;7.232;2023-01-31T16:19:33;4.53;;;3.57;;
12950;SDS011;6540;50.858;7.232;2023-01-31T16:21:59;5.03;;;3.33;;
12950;SDS011;6540;50.858;7.232;2023-01-31T16:24:25;4.40;;;3.40;;
12950;SDS011;6540;50.858;7.232;2023-01-31T16:27:01;3.90;;;3.60;;
12950;SDS011;6540;50.858;7.232;2023-01-31T16:29:38;5.53;;;4.00;;
12950;SDS011;6540;50.858;7.232;2023-01-31T16:32:14;4.67;;;3.90;;
12950;SDS011;6540;50.858;7.232;2023-01-31T16:34:44;5.30;;;4.47;;
12950;SDS011;6540;50.858;7.232;2023-01-31T16:40:03;5.07;;;4.07;;
12950;SDS011;6540;50.858;7.232;2023-01-31T16:42:44;6.90;;;5.67;;
12950;SDS011;6540;50.858;7.232;2023-01-31T16:45:48;7.70;;;4.60;;
12950;SDS011;6540;50.858;7.232;2023-01-31T16:50:53;5.90;;;4.57;;
12950;SDS011;6540;50.858;7.232;2023-01-31T16:58:47;5.63;;;4.63;;
12950;SDS011;6540;50.858;7.232;2023-01-31T17:01:21;8.00;;;5.27;;
12950;SDS011;6540;50.858;7.232;2023-01-31T17:06:27;11.83;;;6.20;;
12950;SDS011;6540;50.858;7.232;2023-01-31T17:08:53;8.20;;;7.03;;
12950;SDS011;6540;50.858;7.232;2023-01-31T17:11:18;10.60;;;6.40;;
12950;SDS011;6540;50.858;7.232;2023-01-31T17:13:44;8.03;;;6.60;;
12950;SDS011;6540;50.858;7.232;2023-01-31T17:16:13;11.93;;;7.77;;
12950;SDS011;6540;50.858;7.232;2023-01-31T17:18:46;9.80;;;6.90;;
12950;SDS011;6540;50.858;7.232;2023-01-31T17:21:11;9.10;;;7.57;;
12950;SDS011;6540;50.858;7.232;2023-01-31T17:23:36;11.50;;;7.20;;
12950;SDS011;6540;50.858;7.232;2023-01-31T17:26:04;10.53;;;8.20;;
12950;SDS011;6540;50.858;7.232;2023-01-31T17:28:29;8.90;;;7.53;;
12950;SDS011;6540;50.858;7.232;2023-01-31T17:30:54;11.13;;;8.03;;
12950;SDS011;6540;50.858;7.232;2023-01-31T17:33:20;11.73;;;8.77;;
12950;SDS011;6540;50.858;7.232;2023-01-31T17:35:45;10.47;;;7.83;;
12950;SDS011;6540;50.858;7.232;2023-01-31T17:38:11;7.97;;;7.17;;
12950;SDS011;6540;50.858;7.232;2023-01-31T17:40:39;11.33;;;8.13;;
12950;SDS011;6540;50.858;7.232;2023-01-31T17:43:09;9.60;;;7.70;;
12950;SDS011;6540;50.858;7.232;2023-01-31T17:45:41;11.30;;;8.43;;
12950;SDS011;6540;50.858;7.232;2023-01-31T17:48:07;9.63;;;7.50;;
12950;SDS011;6540;50.858;7.232;2023-01-31T17:50:32;14.70;;;8.70;;
12950;SDS011;6540;50.858;7.232;2023-01-31T17:52:57;11.63;;;8.43;;
12950;SDS011;6540;50.858;7.232;2023-01-31T17:55:23;12.20;;;8.73;;
12950;SDS011;6540;50.858;7.232;2023-01-31T17:57:49;10.80;;;8.23;;
12950;SDS011;6540;50.858;7.232;2023-01-31T18:00:16;13.23;;;8.43;;
12950;SDS011;6540;50.858;7.232;2023-01-31T18:02:43;9.50;;;8.30;;
12950;SDS011;6540;50.858;7.232;2023-01-31T18:05:09;13.80;;;8.07;;
12950;SDS011;6540;50.858;7.232;2023-01-31T18:07:36;10.60;;;8.20;;
12950;SDS011;6540;50.858;7.232;2023-01-31T18:10:02;11.77;;;8.43;;
12950;SDS011;6540;50.858;7.232;2023-01-31T18:12:28;10.47;;;8.93;;
12950;SDS011;6540;50.858;7.232;2023-01-31T18:14:54;14.23;;;8.50;;
12950;SDS011;6540;50.858;7.232;2023-01-31T18:17:19;12.20;;;8.73;;